Airfield :
LOGIN :

Register | Disclaimer

   EN    FR    IT 

 










Legend :    VFR   Marginal VFR   IFR   Intensive IFR   Very Intensive IFR
Visi :
Ceiling :
>= 8 km
>= 3000ft
5 to 8 km
1000 to 3000 ft
1500m to 5 km
500 to 1000 ft
800 to 1500m
200 to 500 ft
< 800m
< 200 ft
Symbols :   Thunderstorms  Fog  Heavy snow  Heavy precipitations  Wind > 20 kt
SIGMETs :     Misc.  Thunderstorms  Icing  Turbulence  Mountain Waves  Volcanic Ashes






- Airport Elevation : 277 ft
- IATA code : JER


EGJJ - Jersey

CURRENT METAR :
  • 120850Z 16017KT 9999 FEW060CB 23/18 Q1013

EXPIRED METARs :
  • 120820Z 14011KT 9999 FEW060CB 25/18 Q1012
  • 120750Z 14011KT 9999 FEW060CB 23/18 Q1012
  • 120720Z 13013KT 9999 VCSH FEW060CB 22/17 Q1012
  • 120650Z 13013KT 9999 VCSH FEW060CB 23/17 Q1012
  • 120620Z 09008KT 9999 VCSH FEW060CB 22/17 Q1011

TAF TAF EGJJ
Valid from the 12 at 09:00 until the 12 at 18:00 UTC


120800Z 1209/1218 14010KT 9999 FEW060CB
TEMPO 1209/1218 VRB05KT -TSRA SCT060CB
PROB40
TEMPO 1209/1218 6000 TSRA BKN060CB
PROB30
TEMPO 1212/1218 VRB20G35KT 3000 +TSRAGR
ATIS : +44 1534 498 073



MET'MAP, your aeronautical weather chart ! - Copyright ORBIFLY December 2007 - Disclaimer

ORBIFLY MET'MAP TEAM :

Programming & Development : Alexandra Zaïnal
Concept & original design : Baudouin d'Aumeries
Assistance for programming : Marc-Olivier Méhu
Technical & hardware support : Manuel Goepfert

Contact : metmap@orbifly.com




SOURCES & CREDITS :

   NOAA